createdAt,value
2017-09-07T00:00:24.734Z,14.10
2017-09-07T00:02:50.833Z,14.20
2017-09-07T00:05:16.966Z,14.00
2017-09-07T00:07:43.101Z,14.00
2017-09-07T00:10:09.228Z,14.00
2017-09-07T00:12:35.457Z,14.10
2017-09-07T00:15:01.986Z,14.00
2017-09-07T00:17:28.178Z,14.10
2017-09-07T00:19:54.323Z,13.90
2017-09-07T00:22:20.487Z,14.00
2017-09-07T00:24:46.712Z,13.90
2017-09-07T00:27:12.835Z,13.80
2017-09-07T00:29:38.991Z,13.90
2017-09-07T00:32:05.122Z,13.90
2017-09-07T00:34:31.237Z,13.80
2017-09-07T00:36:57.390Z,13.80
2017-09-07T00:39:23.557Z,13.80
2017-09-07T00:41:49.787Z,13.80
2017-09-07T00:44:16.295Z,13.80
2017-09-07T00:46:42.554Z,13.70
2017-09-07T00:49:08.726Z,13.70
2017-09-07T00:51:35.002Z,13.70
2017-09-07T00:54:01.918Z,13.70
2017-09-07T00:56:28.071Z,13.60
2017-09-07T00:58:54.326Z,13.60
2017-09-07T01:01:20.525Z,13.60
2017-09-07T01:03:46.681Z,13.60
2017-09-07T01:06:12.932Z,13.50
2017-09-07T01:08:39.161Z,13.70
2017-09-07T01:11:05.396Z,13.50
2017-09-07T01:13:31.564Z,13.50
2017-09-07T01:15:57.824Z,13.50
2017-09-07T01:18:24.034Z,13.50
2017-09-07T01:20:51.557Z,13.50
2017-09-07T01:23:17.712Z,13.50
2017-09-07T01:25:43.860Z,13.40
2017-09-07T01:28:09.995Z,13.30
2017-09-07T01:30:36.182Z,13.30
2017-09-07T01:33:02.382Z,13.30
2017-09-07T01:35:28.516Z,13.30
2017-09-07T01:37:54.730Z,13.20
2017-09-07T01:40:20.923Z,13.20
2017-09-07T01:42:47.159Z,13.20
2017-09-07T01:45:13.365Z,13.20
2017-09-07T01:47:39.572Z,13.20
2017-09-07T01:50:05.746Z,13.20
2017-09-07T01:52:31.831Z,13.10
2017-09-07T01:54:58.037Z,13.10
2017-09-07T01:57:24.157Z,13.10
2017-09-07T01:59:50.301Z,13.00
2017-09-07T02:02:16.437Z,13.00
2017-09-07T02:04:42.590Z,12.90
2017-09-07T02:07:08.745Z,12.80
2017-09-07T02:09:34.964Z,12.80
2017-09-07T02:12:01.107Z,12.80
2017-09-07T02:14:27.233Z,12.80
2017-09-07T02:16:53.452Z,13.00
2017-09-07T02:19:19.630Z,12.90
2017-09-07T02:21:45.779Z,12.80
2017-09-07T02:24:11.886Z,13.00
2017-09-07T02:26:38.058Z,12.90
2017-09-07T02:29:04.351Z,12.90
2017-09-07T02:31:30.437Z,12.80
2017-09-07T02:33:56.696Z,12.90
2017-09-07T02:36:22.889Z,12.80
2017-09-07T02:38:49.023Z,12.90
2017-09-07T02:41:15.188Z,13.00
2017-09-07T02:43:41.397Z,12.90
2017-09-07T02:46:07.533Z,12.90
2017-09-07T02:48:33.677Z,12.90
2017-09-07T02:50:59.957Z,12.90
2017-09-07T02:53:26.144Z,12.90
2017-09-07T02:55:53.130Z,12.90
2017-09-07T02:58:19.257Z,12.90
2017-09-07T03:00:45.409Z,12.90
2017-09-07T03:03:11.584Z,12.90
2017-09-07T03:05:37.824Z,12.80
2017-09-07T03:08:04.109Z,12.70
2017-09-07T03:10:30.301Z,12.80
2017-09-07T03:12:56.516Z,12.70
2017-09-07T03:15:22.762Z,12.70
2017-09-07T03:17:48.887Z,12.70
2017-09-07T03:20:15.026Z,12.80
2017-09-07T03:22:41.181Z,12.70
2017-09-07T03:25:07.337Z,12.70
2017-09-07T03:27:33.458Z,12.70
2017-09-07T03:29:59.684Z,12.60
2017-09-07T03:32:25.850Z,12.70
2017-09-07T03:34:51.956Z,12.70
2017-09-07T03:37:18.096Z,12.60
2017-09-07T03:39:44.298Z,12.60
2017-09-07T03:42:10.489Z,12.60
2017-09-07T03:44:36.595Z,12.60
2017-09-07T03:47:02.805Z,12.80
2017-09-07T03:49:29.000Z,12.60
2017-09-07T03:51:55.121Z,12.60
2017-09-07T03:54:21.297Z,12.50
2017-09-07T03:56:47.509Z,12.50
2017-09-07T03:59:13.649Z,12.40
2017-09-07T04:01:39.835Z,12.40
2017-09-07T04:04:06.016Z,12.40
2017-09-07T04:06:32.147Z,12.40
2017-09-07T04:08:58.324Z,12.40
2017-09-07T04:11:24.454Z,12.40
2017-09-07T04:13:50.556Z,12.50
2017-09-07T04:16:16.750Z,12.40
2017-09-07T04:18:42.884Z,12.40
2017-09-07T04:21:09.137Z,12.40
2017-09-07T04:23:35.413Z,12.30
2017-09-07T04:26:01.614Z,12.40
2017-09-07T04:28:27.829Z,12.50
2017-09-07T04:30:53.984Z,12.50
2017-09-07T04:33:20.209Z,12.40
2017-09-07T04:35:46.427Z,12.50
2017-09-07T04:38:12.614Z,12.50
2017-09-07T04:40:38.836Z,12.50
2017-09-07T04:43:04.966Z,12.40
2017-09-07T04:45:31.112Z,12.40
2017-09-07T04:47:57.224Z,12.50
2017-09-07T04:50:23.462Z,12.50
2017-09-07T04:52:49.625Z,12.70
2017-09-07T04:55:15.743Z,12.60
2017-09-07T04:57:41.981Z,12.60
2017-09-07T05:00:08.164Z,12.60
2017-09-07T05:02:34.360Z,12.70
2017-09-07T05:05:00.496Z,12.70
2017-09-07T05:07:26.675Z,12.80
2017-09-07T05:09:53.184Z,13.00
2017-09-07T05:12:19.342Z,13.00
2017-09-07T05:14:45.484Z,12.90
2017-09-07T05:17:11.610Z,12.90
2017-09-07T05:19:37.906Z,12.90
2017-09-07T05:22:04.066Z,13.00
2017-09-07T05:24:30.326Z,13.10
2017-09-07T05:26:56.908Z,13.10
2017-09-07T05:29:23.044Z,13.20
2017-09-07T05:31:49.273Z,13.20
2017-09-07T05:34:15.400Z,13.20
2017-09-07T05:36:41.544Z,13.40
2017-09-07T05:39:07.652Z,13.40
2017-09-07T05:41:33.748Z,13.50
2017-09-07T05:43:59.964Z,13.60
2017-09-07T05:46:26.060Z,13.50
2017-09-07T05:48:52.210Z,13.50
2017-09-07T05:51:18.373Z,13.60
2017-09-07T05:53:44.491Z,13.60
2017-09-07T05:56:10.579Z,13.80
2017-09-07T05:58:37.301Z,13.80
2017-09-07T06:01:03.418Z,13.80
2017-09-07T06:03:30.545Z,13.80
2017-09-07T06:05:56.668Z,13.70
2017-09-07T06:08:22.874Z,13.70
2017-09-07T06:10:48.984Z,13.70
2017-09-07T06:13:15.160Z,13.80
2017-09-07T06:15:42.344Z,13.60
2017-09-07T06:18:08.537Z,13.80
2017-09-07T06:20:34.704Z,13.80
2017-09-07T06:23:00.823Z,13.80
2017-09-07T06:25:26.985Z,13.90
2017-09-07T06:27:53.134Z,14.10
2017-09-07T06:30:19.349Z,14.40
2017-09-07T06:32:45.449Z,14.60
2017-09-07T06:35:11.650Z,14.50
2017-09-07T06:37:37.870Z,14.40
2017-09-07T06:40:04.037Z,14.60
2017-09-07T06:42:30.189Z,14.60
2017-09-07T06:44:56.388Z,14.50
2017-09-07T06:47:22.538Z,14.40
2017-09-07T06:49:48.780Z,14.40
2017-09-07T06:52:14.897Z,14.50
2017-09-07T06:54:41.052Z,14.90
2017-09-07T06:57:07.256Z,15.20
2017-09-07T06:59:33.389Z,15.30
2017-09-07T07:01:59.548Z,15.60
2017-09-07T07:04:25.733Z,15.70
2017-09-07T07:06:51.924Z,15.50
2017-09-07T07:09:18.164Z,15.50
2017-09-07T07:11:44.337Z,15.50
2017-09-07T07:14:10.564Z,15.50
2017-09-07T07:16:36.787Z,15.70
2017-09-07T07:19:03.031Z,15.90
2017-09-07T07:21:29.268Z,16.00
2017-09-07T07:23:55.527Z,16.70
2017-09-07T07:26:21.709Z,17.40
2017-09-07T07:28:47.985Z,17.40
2017-09-07T07:31:14.244Z,17.20
2017-09-07T07:33:40.412Z,17.40
2017-09-07T07:36:07.455Z,17.60
2017-09-07T07:38:33.618Z,16.80
2017-09-07T07:40:59.859Z,16.90
2017-09-07T07:43:25.998Z,16.80
2017-09-07T07:45:52.231Z,17.00
2017-09-07T07:48:25.494Z,17.40
2017-09-07T07:50:51.675Z,18.10
2017-09-07T07:53:17.968Z,18.30
2017-09-07T07:56:19.618Z,18.80
2017-09-07T07:58:45.825Z,19.10
2017-09-07T08:01:12.673Z,18.00
2017-09-07T08:03:53.968Z,17.90
2017-09-07T08:06:20.228Z,18.00
2017-09-07T08:08:46.424Z,17.90
2017-09-07T08:11:12.591Z,17.90
2017-09-07T08:13:38.803Z,18.20
2017-09-07T08:16:05.021Z,18.10
2017-09-07T08:18:31.286Z,17.90
2017-09-07T08:20:57.839Z,17.50
2017-09-07T08:23:23.996Z,17.10
2017-09-07T08:25:50.161Z,16.70
2017-09-07T08:28:17.135Z,16.70
2017-09-07T08:30:43.423Z,16.70
2017-09-07T08:33:09.617Z,17.00
2017-09-07T08:35:35.830Z,17.60
2017-09-07T08:38:02.023Z,17.60
2017-09-07T08:40:28.194Z,18.40
2017-09-07T08:42:54.304Z,19.60
2017-09-07T08:45:20.449Z,19.00
2017-09-07T08:47:46.605Z,18.80
2017-09-07T08:50:12.748Z,18.20
2017-09-07T08:52:39.610Z,17.80
2017-09-07T08:55:05.749Z,17.80
2017-09-07T08:57:31.853Z,17.80
2017-09-07T08:59:58.108Z,17.50
2017-09-07T09:02:24.337Z,17.40
2017-09-07T09:04:50.482Z,17.30
2017-09-07T09:07:16.607Z,17.20
2017-09-07T09:09:42.801Z,17.10
2017-09-07T09:12:08.989Z,17.20
2017-09-07T09:14:35.146Z,17.10
2017-09-07T09:17:01.344Z,17.40
2017-09-07T09:19:27.514Z,17.70
2017-09-07T09:21:53.655Z,18.20
2017-09-07T09:24:19.816Z,18.30
2017-09-07T09:26:46.033Z,17.80
2017-09-07T09:29:12.263Z,17.30
2017-09-07T09:31:38.415Z,17.00
2017-09-07T09:34:04.551Z,16.90
2017-09-07T09:36:30.811Z,16.80
2017-09-07T09:38:56.938Z,17.10
2017-09-07T09:41:23.084Z,18.30
2017-09-07T09:43:49.199Z,19.60
2017-09-07T09:46:15.373Z,19.00
2017-09-07T09:48:41.585Z,18.60
2017-09-07T09:51:07.744Z,18.30
2017-09-07T09:53:33.862Z,18.20
2017-09-07T09:55:59.991Z,18.20
2017-09-07T09:58:26.112Z,17.80
2017-09-07T10:00:52.490Z,17.40
2017-09-07T10:03:18.617Z,17.70
2017-09-07T10:05:44.741Z,17.80
2017-09-07T10:08:11.037Z,17.90
2017-09-07T10:10:37.250Z,18.00
2017-09-07T10:13:03.364Z,18.10
2017-09-07T10:15:29.485Z,18.10
2017-09-07T10:17:55.721Z,18.20
2017-09-07T10:20:21.909Z,18.60
2017-09-07T10:22:48.061Z,19.10
2017-09-07T10:25:14.168Z,19.80
2017-09-07T10:27:40.430Z,18.80
2017-09-07T10:30:07.323Z,17.70
2017-09-07T10:32:33.436Z,17.70
2017-09-07T10:34:59.677Z,17.40
2017-09-07T10:37:25.917Z,17.40
2017-09-07T10:39:52.120Z,17.30
2017-09-07T10:42:18.260Z,17.30
2017-09-07T10:44:44.546Z,17.40
2017-09-07T10:47:10.780Z,17.90
2017-09-07T10:49:37.007Z,18.40
2017-09-07T10:52:03.154Z,19.60
2017-09-07T10:54:29.293Z,19.50
2017-09-07T10:56:55.517Z,19.30
2017-09-07T10:59:21.741Z,19.20
2017-09-07T11:01:47.915Z,18.70
2017-09-07T11:04:14.149Z,18.40
2017-09-07T11:06:40.395Z,17.80
2017-09-07T11:09:06.634Z,17.70
2017-09-07T11:11:32.828Z,17.70
2017-09-07T11:13:58.981Z,18.10
2017-09-07T11:16:25.151Z,18.90
2017-09-07T11:18:51.368Z,19.10
2017-09-07T11:21:17.579Z,19.20
2017-09-07T11:23:43.749Z,18.80
2017-09-07T11:26:09.915Z,18.50
2017-09-07T11:28:36.098Z,18.50
2017-09-07T11:31:02.269Z,18.30
2017-09-07T11:33:28.398Z,18.20
2017-09-07T11:35:54.578Z,18.20
2017-09-07T11:38:20.789Z,18.10
2017-09-07T11:40:46.957Z,18.20
2017-09-07T11:43:13.468Z,18.20
2017-09-07T11:45:39.568Z,17.80
2017-09-07T11:48:05.913Z,17.20
2017-09-07T11:50:32.020Z,16.50
2017-09-07T11:52:58.365Z,15.90
2017-09-07T11:55:24.585Z,15.90
2017-09-07T11:57:51.554Z,16.00
2017-09-07T12:00:17.770Z,16.00
2017-09-07T12:02:43.911Z,16.10
2017-09-07T12:05:10.035Z,16.20
2017-09-07T12:07:36.194Z,16.30
2017-09-07T12:10:02.369Z,16.30
2017-09-07T12:12:28.561Z,16.50
2017-09-07T12:14:55.465Z,16.90
2017-09-07T12:17:21.761Z,16.90
2017-09-07T12:19:47.906Z,17.00
2017-09-07T12:22:14.112Z,17.40
2017-09-07T12:24:40.346Z,17.40
2017-09-07T12:27:06.638Z,17.30
2017-09-07T12:29:32.794Z,17.30
2017-09-07T12:31:59.766Z,17.60
2017-09-07T12:34:25.952Z,17.60
2017-09-07T12:36:52.110Z,17.70
2017-09-07T12:39:18.270Z,17.80
2017-09-07T12:41:44.399Z,18.00
2017-09-07T12:44:11.257Z,17.90
2017-09-07T12:46:37.396Z,17.90
2017-09-07T12:49:03.600Z,18.00
2017-09-07T12:51:29.877Z,18.00
2017-09-07T12:53:56.022Z,18.20
2017-09-07T12:56:23.117Z,18.30
2017-09-07T12:58:49.249Z,18.80
2017-09-07T13:01:15.487Z,19.10
2017-09-07T13:03:41.669Z,19.00
2017-09-07T13:06:08.004Z,19.30
2017-09-07T13:08:34.191Z,19.30
2017-09-07T13:11:00.455Z,19.10
2017-09-07T13:13:26.632Z,18.80
2017-09-07T13:15:52.804Z,18.40
2017-09-07T13:18:18.958Z,18.60
2017-09-07T13:20:46.028Z,18.80
2017-09-07T13:23:12.245Z,18.80
2017-09-07T13:25:38.445Z,18.50
2017-09-07T13:28:04.610Z,18.60
2017-09-07T13:30:30.862Z,18.30
2017-09-07T13:32:57.084Z,18.40
2017-09-07T13:35:23.203Z,18.10
2017-09-07T13:37:49.374Z,18.00
2017-09-07T13:40:15.489Z,17.70
2017-09-07T13:42:41.632Z,18.00
2017-09-07T13:45:07.902Z,18.20
2017-09-07T13:47:34.041Z,18.00
2017-09-07T13:50:00.391Z,17.80
2017-09-07T13:52:26.586Z,17.80
2017-09-07T13:54:52.744Z,17.50
2017-09-07T13:57:18.886Z,17.30
2017-09-07T13:59:45.121Z,17.60
2017-09-07T14:02:11.244Z,17.40
2017-09-07T14:04:37.799Z,17.90
2017-09-07T14:07:04.088Z,18.00
2017-09-07T14:09:30.698Z,18.10
2017-09-07T14:11:56.923Z,18.20
2017-09-07T14:14:23.100Z,18.50
2017-09-07T14:16:49.282Z,18.60
2017-09-07T14:19:15.608Z,18.80
2017-09-07T14:21:42.225Z,18.50
2017-09-07T14:24:08.440Z,18.50
2017-09-07T14:26:34.589Z,18.40
2017-09-07T14:29:00.861Z,18.00
2017-09-07T14:31:27.467Z,17.90
2017-09-07T14:33:54.198Z,17.70
2017-09-07T14:36:20.331Z,17.70
2017-09-07T14:38:46.627Z,17.60
2017-09-07T14:41:12.860Z,17.50
2017-09-07T14:43:40.000Z,17.40
2017-09-07T14:46:06.136Z,17.30
2017-09-07T14:48:32.317Z,17.40
2017-09-07T14:50:58.541Z,17.50
2017-09-07T14:53:24.647Z,17.60
2017-09-07T14:55:50.836Z,17.60
2017-09-07T14:58:17.094Z,17.60
2017-09-07T15:00:43.301Z,17.40
2017-09-07T15:03:09.513Z,17.40
2017-09-07T15:05:35.668Z,17.50
2017-09-07T15:08:01.881Z,17.80
2017-09-07T15:10:30.516Z,17.80
2017-09-07T15:12:56.783Z,17.70
2017-09-07T15:15:23.013Z,17.80
2017-09-07T15:17:49.237Z,18.00
2017-09-07T15:20:15.433Z,18.30
2017-09-07T15:22:41.545Z,18.50
2017-09-07T15:25:07.653Z,18.30
2017-09-07T15:27:33.785Z,18.20
2017-09-07T15:29:59.900Z,18.20
2017-09-07T15:32:41.120Z,18.00
2017-09-07T15:35:07.986Z,17.90
2017-09-07T15:37:34.230Z,17.90
2017-09-07T15:40:00.502Z,17.60
2017-09-07T15:42:26.630Z,17.70
2017-09-07T15:44:52.932Z,17.80
2017-09-07T15:47:19.110Z,17.80
2017-09-07T15:49:45.308Z,17.50
2017-09-07T15:52:12.182Z,17.40
2017-09-07T15:54:38.330Z,17.30
2017-09-07T15:57:04.533Z,17.40
2017-09-07T15:59:30.866Z,17.40
2017-09-07T16:01:57.188Z,17.40
2017-09-07T16:04:23.399Z,17.40
2017-09-07T16:06:50.583Z,17.40
2017-09-07T16:09:16.806Z,17.40
2017-09-07T16:11:43.022Z,17.20
2017-09-07T16:14:09.236Z,17.30
2017-09-07T16:16:35.616Z,17.20
2017-09-07T16:19:01.856Z,17.20
2017-09-07T16:21:28.151Z,17.20
2017-09-07T16:23:54.375Z,17.10
2017-09-07T16:26:20.557Z,17.10
2017-09-07T16:28:46.688Z,17.10
2017-09-07T16:31:13.632Z,17.00
2017-09-07T16:33:39.860Z,16.90
2017-09-07T16:36:05.987Z,17.00
2017-09-07T16:38:32.153Z,16.90
2017-09-07T16:40:58.318Z,16.80
2017-09-07T16:43:24.446Z,16.80
2017-09-07T16:45:50.600Z,16.80
2017-09-07T16:48:16.816Z,16.90
2017-09-07T16:50:43.709Z,17.00
2017-09-07T16:53:10.598Z,16.90
2017-09-07T16:55:36.847Z,16.90
2017-09-07T16:58:03.120Z,16.90
2017-09-07T17:00:29.317Z,16.80
2017-09-07T17:02:56.224Z,16.60
2017-09-07T17:05:23.162Z,16.60
2017-09-07T17:07:49.325Z,16.60
2017-09-07T17:10:16.306Z,16.50
2017-09-07T17:12:42.487Z,16.50
2017-09-07T17:15:23.718Z,16.50
2017-09-07T17:17:49.891Z,16.50
2017-09-07T17:20:16.087Z,16.40
2017-09-07T17:22:42.374Z,16.40
2017-09-07T17:25:08.952Z,16.30
2017-09-07T17:27:35.107Z,16.20
2017-09-07T17:30:01.354Z,16.30
2017-09-07T17:32:27.476Z,16.30
2017-09-07T17:34:54.046Z,16.30
2017-09-07T17:37:20.241Z,16.20
2017-09-07T17:39:46.438Z,16.20
2017-09-07T17:42:12.568Z,16.10
2017-09-07T17:47:10.715Z,16.10
2017-09-07T17:49:36.945Z,16.00
2017-09-07T17:52:03.212Z,16.00
2017-09-07T17:54:29.826Z,15.90
2017-09-07T17:56:55.965Z,16.00
2017-09-07T17:59:22.334Z,15.90
2017-09-07T18:01:48.468Z,16.00
2017-09-07T18:04:14.944Z,16.00
2017-09-07T18:06:41.192Z,16.00
2017-09-07T18:09:08.464Z,16.00
2017-09-07T18:11:34.673Z,16.00
2017-09-07T18:14:01.131Z,16.00
2017-09-07T18:16:27.404Z,15.90
2017-09-07T18:18:53.556Z,15.90
2017-09-07T18:21:19.733Z,15.90
2017-09-07T18:23:46.749Z,15.80
2017-09-07T18:26:12.898Z,15.80
2017-09-07T18:28:39.123Z,15.80
2017-09-07T18:31:05.422Z,15.80
2017-09-07T18:33:31.769Z,15.80
2017-09-07T18:35:58.095Z,15.80
2017-09-07T18:38:24.385Z,15.80
2017-09-07T18:40:50.548Z,15.70
2017-09-07T18:43:16.692Z,15.70
2017-09-07T18:45:42.849Z,15.70
2017-09-07T18:48:10.227Z,15.70
2017-09-07T18:50:36.883Z,15.70
2017-09-07T18:53:03.076Z,15.60
2017-09-07T18:55:29.203Z,15.50
2017-09-07T18:57:55.389Z,15.50
2017-09-07T19:00:21.638Z,15.50
2017-09-07T19:02:47.813Z,15.60
2017-09-07T19:05:14.052Z,15.50
2017-09-07T19:07:40.329Z,15.60
2017-09-07T19:10:07.293Z,15.70
2017-09-07T19:12:33.433Z,15.70
2017-09-07T19:14:59.681Z,15.60
2017-09-07T19:17:25.906Z,15.60
2017-09-07T19:19:52.153Z,15.60
2017-09-07T19:22:18.457Z,15.60
2017-09-07T19:24:44.607Z,15.60
2017-09-07T19:27:10.768Z,15.60
2017-09-07T19:29:37.735Z,15.60
2017-09-07T19:32:04.006Z,15.50
2017-09-07T19:34:30.121Z,15.60
2017-09-07T19:36:56.431Z,15.60
2017-09-07T19:39:22.567Z,15.50
2017-09-07T19:41:49.388Z,15.50
2017-09-07T19:44:15.590Z,15.60
2017-09-07T19:46:41.806Z,15.60
2017-09-07T19:49:08.325Z,15.50
2017-09-07T19:51:34.500Z,15.50
2017-09-07T19:54:00.983Z,15.60
2017-09-07T19:56:27.189Z,15.50
2017-09-07T19:58:54.125Z,15.50
2017-09-07T20:01:20.373Z,15.50
2017-09-07T20:03:47.299Z,15.50
2017-09-07T20:06:13.612Z,15.50
2017-09-07T20:08:39.905Z,15.40
2017-09-07T20:11:06.092Z,15.50
2017-09-07T20:13:32.305Z,15.40
2017-09-07T20:15:58.424Z,15.40
2017-09-07T20:18:26.095Z,15.50
2017-09-07T20:20:52.353Z,15.50
2017-09-07T20:23:18.585Z,15.40
2017-09-07T20:25:44.823Z,15.40
2017-09-07T20:28:11.057Z,15.40
2017-09-07T20:30:37.760Z,15.50
2017-09-07T20:33:04.047Z,15.30
2017-09-07T20:35:30.313Z,15.30
2017-09-07T20:37:56.654Z,15.40
2017-09-07T20:40:22.764Z,15.30
2017-09-07T20:42:49.067Z,15.30
2017-09-07T20:45:15.336Z,15.30
2017-09-07T20:47:41.846Z,15.30
2017-09-07T20:50:08.228Z,15.20
2017-09-07T20:52:34.400Z,15.10
2017-09-07T20:55:00.540Z,15.00
2017-09-07T20:57:26.709Z,14.90
2017-09-07T20:59:52.917Z,14.90
2017-09-07T21:02:19.127Z,14.80
2017-09-07T21:04:47.227Z,14.70
2017-09-07T21:07:14.387Z,14.70
2017-09-07T21:09:40.607Z,14.80
2017-09-07T21:12:06.867Z,14.80
2017-09-07T21:14:33.012Z,14.80
2017-09-07T21:16:59.267Z,14.90
2017-09-07T21:19:25.483Z,14.90
2017-09-07T21:21:51.746Z,14.90
2017-09-07T21:24:17.889Z,14.90
2017-09-07T21:26:44.047Z,14.90
2017-09-07T21:29:10.314Z,14.90
2017-09-07T21:31:37.065Z,14.90
2017-09-07T21:34:03.488Z,15.00
2017-09-07T21:36:30.565Z,15.00
2017-09-07T21:38:56.771Z,15.00
2017-09-07T21:41:22.922Z,14.90
2017-09-07T21:43:49.161Z,14.90
2017-09-07T21:46:15.674Z,14.80
2017-09-07T21:48:41.846Z,14.70
2017-09-07T21:51:08.766Z,14.60
2017-09-07T21:53:42.733Z,14.60
2017-09-07T21:56:09.049Z,14.60
2017-09-07T21:58:35.180Z,14.70
2017-09-07T22:01:01.437Z,14.70
2017-09-07T22:03:27.632Z,14.70
2017-09-07T22:05:53.854Z,14.70
2017-09-07T22:08:20.046Z,14.70
2017-09-07T22:10:46.201Z,14.70
2017-09-07T22:13:12.471Z,14.70
2017-09-07T22:15:38.749Z,14.60
2017-09-07T22:18:05.048Z,14.60
2017-09-07T22:20:31.340Z,14.50
2017-09-07T22:22:57.590Z,14.40
2017-09-07T22:25:24.061Z,14.60
2017-09-07T22:27:50.581Z,14.50
2017-09-07T22:30:16.729Z,14.40
2017-09-07T22:32:42.947Z,14.50
2017-09-07T22:35:09.926Z,14.50
2017-09-07T22:37:36.915Z,14.40
2017-09-07T22:40:03.282Z,14.20
2017-09-07T22:42:29.404Z,14.20
2017-09-07T22:44:55.645Z,14.10
2017-09-07T22:47:22.053Z,14.10
2017-09-07T22:49:48.188Z,14.10
2017-09-07T22:52:14.351Z,14.20
2017-09-07T22:54:40.498Z,14.30
2017-09-07T22:57:07.446Z,14.30
2017-09-07T22:59:33.681Z,14.30
2017-09-07T23:01:59.822Z,14.30
2017-09-07T23:04:25.935Z,14.30
2017-09-07T23:06:52.411Z,14.20
2017-09-07T23:09:19.343Z,14.20
2017-09-07T23:11:45.532Z,14.20
2017-09-07T23:14:11.712Z,14.30
2017-09-07T23:16:37.912Z,14.30
2017-09-07T23:19:04.101Z,14.30
2017-09-07T23:21:30.995Z,14.40
2017-09-07T23:23:57.510Z,14.30
2017-09-07T23:26:24.057Z,14.20
2017-09-07T23:28:50.317Z,14.20
2017-09-07T23:31:16.657Z,14.30
2017-09-07T23:33:42.779Z,14.20
2017-09-07T23:36:09.146Z,14.10
2017-09-07T23:38:35.287Z,14.10
2017-09-07T23:41:01.563Z,13.90
2017-09-07T23:43:27.741Z,13.90
2017-09-07T23:45:54.009Z,14.00
2017-09-07T23:48:20.885Z,13.80
2017-09-07T23:50:47.104Z,13.70
2017-09-07T23:53:13.278Z,13.70
2017-09-07T23:55:40.378Z,13.40
2017-09-07T23:58:06.645Z,13.40
